Informes de METARS cercanos

 

LEAL - Alicante/El Alte, Spain
Distance from station: SSE 60km
Actualización: 04/06/2020 03:00
Despejado
Despejado
 Viento del O
Viento: O 9 km/h
Temperatura: 22°C
Rocío: 15°C
Humedad: 65%
Barómetro: 1003 hPa
Resumen: Despejado
Visibility: greater than 10 km
2020/06/04 01:00 LEAL 040100Z 28005KT 230V300 CAVOK 22/15 Q1003 NOSIG
LEVC - Valencia (civ/Mi, Spain
Distance from station: NNE 84km
Actualización: 04/06/2020 03:00
Few Clouds
Few Clouds
 Viento del S
Viento: S 9 km/h
Temperatura: 22°C
Rocío: 18°C
Humedad: 78%
Barómetro: 1005 hPa
Clouds: Few Clouds
Visibility: 10 km
Cloud details: Few Clouds 1524 m
2020/06/04 01:00 LEVC 040100Z 17005KT 9999 FEW050 22/18 Q1005 NOSIG
 
LEAB - Albacete (civ/Mi, Spain
Distance from station: O 95km
Actualización: 04/06/2020 03:00
Despejado
Despejado
 Viento del O
Viento: O 19 km/h
Temperatura: 19°C
Rocío: 11°C
Humedad: 60%
Barómetro: 1008 hPa
Resumen: Despejado
Visibility: greater than 10 km
2020/06/04 01:00 LEAB 040100Z 26010KT CAVOK 19/11 Q1008 NOSIG
LERI - Alcantarilla(Sp-, Spain
Distance from station: SSO 100km
Actualización: 03/06/2020 13:00
NOT Current
Despejado
Despejado
 Viento del ESE
Viento: ESE 7 km/h
Temperatura: 29°C
Rocío: 12°C
Humedad: 35%
Barómetro: 1009 hPa
Resumen: Despejado
Visibility: greater than 10 km
2020/06/03 11:00 LERI 031100Z 11004KT 020V190 CAVOK 29/12 Q1009 NOSIG
 
LELC - San Javier(Mil/C, Spain
Distance from station: S 113km
Actualización: 04/06/2020 03:00
Despejado
Despejado
 Viento del varies
Viento: varies 2 km/h
Temperatura: 20°C
Rocío: 18°C
Humedad: 88%
Barómetro: 1004 hPa
Clouds: Despejado
Visibility: 9 km
2020/06/04 01:00 LELC 040100Z AUTO VRB01KT 9000 NCD 20/18 Q1004
LEIB - Ibiza/Es Codola, Spain
Distance from station: E 186km
Actualización: 04/06/2020 03:00
Cubierto
Cubierto
 Viento del S
Viento: S 6 km/h
Temperatura: 21°C
Rocío: 19°C
Humedad: 88%
Barómetro: 1003 hPa
Clouds: Cubierto
Visibility: 10 km
Cloud details: Few Clouds 335 m
Cubierto 396 m
2020/06/04 01:00 LEIB 040100Z AUTO 19003KT 160V220 9999 FEW011/// OVC013/// 21/19 Q1003
 
LEAM - Almeria Airport, Spain
Distance from station: SSO 256km
Actualización: 04/06/2020 03:00
Despejado
Despejado
 Viento del varies
Viento: varies 6 km/h
Temperatura: 20°C
Rocío: 16°C
Humedad: 78%
Barómetro: 1005 hPa
Resumen: Despejado
Visibility: greater than 10 km
2020/06/04 01:00 LEAM 040100Z AUTO VRB03KT CAVOK 20/16 Q1005
LEMD - Madrid/Barajas, Spain
Distance from station: NO 305km
Actualización: 04/06/2020 03:00
Muy nuboso
Muy nuboso
 Viento del calm
Viento: Calma
Temperatura: 17°C
Rocío: 16°C
Humedad: 94%
Barómetro: 1006 hPa
Clouds: Muy nuboso
Visibility: 10 km
Cloud details: Few Clouds 1372 m
Parcialmente nuboso 1981 m
Muy nuboso 2438 m
2020/06/04 01:00 LEMD 040100Z 00000KT 9999 FEW045 SCT065 BKN080 17/16 Q1006 R99/29//95 NOSIG
 
LEPA - Palma De Mallorc, Spain
Distance from station: ENE 313km
Actualización: 04/06/2020 03:00
Few Clouds
Few Clouds
 Viento del NE
Viento: NE 6 km/h
Temperatura: 19°C
Rocío: 17°C
Humedad: 88%
Barómetro: 1004 hPa
Clouds: Few Clouds
Visibility: 10 km
Cloud details: Few Clouds 610 m
2020/06/04 01:00 LEPA 040100Z 05003KT 020V080 9999 FEW020 19/17 Q1004 NOSIG